createdAt,value
2023-01-22T00:00:27.247Z,101387.56
2023-01-22T00:02:55.052Z,101381.47
2023-01-22T00:05:24.092Z,101379.78
2023-01-22T00:07:53.200Z,101380.69
2023-01-22T00:10:21.004Z,101382.31
2023-01-22T00:12:48.758Z,101379.66
2023-01-22T00:15:16.614Z,101377.09
2023-01-22T00:17:44.324Z,101384.06
2023-01-22T00:20:13.621Z,101381.44
2023-01-22T00:22:41.339Z,101372.69
2023-01-22T00:25:12.555Z,101377.88
2023-01-22T00:27:41.733Z,101375.22
2023-01-22T00:30:10.781Z,101369.03
2023-01-22T00:32:38.574Z,101373.31
2023-01-22T00:35:06.819Z,101366.28
2023-01-22T00:37:34.490Z,101374.78
2023-01-22T00:40:02.265Z,101367.84
2023-01-22T00:42:31.309Z,101369.66
2023-01-22T00:44:59.695Z,101367.88
2023-01-22T00:47:27.468Z,101357.41
2023-01-22T00:49:55.197Z,101355.63
2023-01-22T00:52:22.887Z,101350.56
2023-01-22T00:54:50.590Z,101351.28
2023-01-22T00:57:21.650Z,101352.91
2023-01-22T00:59:50.859Z,101350.34
2023-01-22T01:02:19.027Z,101346.91
2023-01-22T01:04:46.778Z,101345.25
2023-01-22T01:07:14.450Z,101356.50
2023-01-22T01:09:42.218Z,101343.50
2023-01-22T01:12:09.949Z,101353.09
2023-01-22T01:14:37.705Z,101344.44
2023-01-22T01:17:06.909Z,101347.97
2023-01-22T01:19:34.847Z,101346.16
2023-01-22T01:22:02.549Z,101345.25
2023-01-22T01:24:30.353Z,101345.97
2023-01-22T01:26:58.107Z,101348.69
2023-01-22T01:29:25.748Z,101342.59
2023-01-22T01:31:54.756Z,101342.53
2023-01-22T01:34:23.943Z,101346.03
2023-01-22T01:36:51.697Z,101339.91
2023-01-22T01:39:19.564Z,101344.25
2023-01-22T01:41:47.340Z,101339.91
2023-01-22T01:44:17.264Z,101341.56
2023-01-22T01:46:49.016Z,101344.19
2023-01-22T01:49:20.937Z,101346.78
2023-01-22T01:51:51.216Z,101347.69
2023-01-22T01:54:19.193Z,101346.66
2023-01-22T01:56:50.765Z,101338.88
2023-01-22T01:59:21.015Z,101337.97
2023-01-22T02:01:53.842Z,101337.75
2023-01-22T02:04:22.450Z,101341.44
2023-01-22T02:06:51.483Z,101342.34
2023-01-22T02:09:19.483Z,101336.13
2023-01-22T02:11:48.321Z,101332.59
2023-01-22T02:14:19.598Z,101330.81
2023-01-22T02:16:47.338Z,101338.69
2023-01-22T02:19:15.030Z,101337.84
2023-01-22T02:21:45.413Z,101330.91
2023-01-22T02:24:15.833Z,101334.28
2023-01-22T02:26:46.244Z,101330.78
2023-01-22T02:29:15.144Z,101329.03
2023-01-22T02:31:43.772Z,101332.53
2023-01-22T02:34:12.311Z,101329.91
2023-01-22T02:36:41.131Z,101325.53
2023-01-22T02:39:10.144Z,101322.03
2023-01-22T02:41:37.871Z,101328.97
2023-01-22T02:44:07.450Z,101331.56
2023-01-22T02:46:35.458Z,101328.09
2023-01-22T02:49:03.349Z,101322.78
2023-01-22T02:51:31.166Z,101321.00
2023-01-22T02:53:58.908Z,101325.41
2023-01-22T02:56:27.988Z,101327.13
2023-01-22T02:58:55.804Z,101320.97
2023-01-22T03:01:25.639Z,101329.69
2023-01-22T03:03:55.868Z,101322.72
2023-01-22T03:06:25.981Z,101324.47
2023-01-22T03:08:56.090Z,101321.91
2023-01-22T03:11:24.965Z,101320.09
2023-01-22T03:14:12.066Z,101326.06
2023-01-22T03:16:57.481Z,101321.69
2023-01-22T03:19:43.383Z,101323.47
2023-01-22T03:22:11.357Z,101317.41
2023-01-22T03:24:39.072Z,101323.44
2023-01-22T03:27:06.817Z,101323.41
2023-01-22T03:29:38.529Z,101317.22
2023-01-22T03:32:07.135Z,101320.00
2023-01-22T03:34:35.236Z,101311.16
2023-01-22T03:37:03.099Z,101312.94
2023-01-22T03:39:32.654Z,101314.66
2023-01-22T03:42:00.680Z,101325.13
2023-01-22T03:44:28.435Z,101324.28
2023-01-22T03:46:57.527Z,101317.28
2023-01-22T03:49:25.416Z,101319.00
2023-01-22T03:51:53.175Z,101321.69
2023-01-22T03:54:20.930Z,101314.72
2023-01-22T03:56:48.714Z,101324.31
2023-01-22T03:59:16.372Z,101323.44
2023-01-22T04:01:44.312Z,101325.34
2023-01-22T04:04:13.399Z,101323.59
2023-01-22T04:06:41.131Z,101322.59
2023-01-22T04:09:08.822Z,101318.31
2023-01-22T04:11:36.572Z,101321.69
2023-01-22T04:14:04.357Z,101329.69
2023-01-22T04:16:32.193Z,101329.66
2023-01-22T04:19:00.004Z,101330.38
2023-01-22T04:21:29.076Z,101327.81
2023-01-22T04:23:57.584Z,101334.81
2023-01-22T04:26:25.327Z,101334.81
2023-01-22T04:28:53.070Z,101333.06
2023-01-22T04:31:20.816Z,101342.72
2023-01-22T04:33:48.693Z,101341.78
2023-01-22T04:36:16.415Z,101333.06
2023-01-22T04:38:45.516Z,101341.81
2023-01-22T04:41:13.255Z,101334.03
2023-01-22T04:43:40.979Z,101327.84
2023-01-22T04:46:08.803Z,101335.69
2023-01-22T04:48:36.506Z,101339.88
2023-01-22T04:51:04.499Z,101329.47
2023-01-22T04:53:32.227Z,101326.91
2023-01-22T04:56:01.418Z,101330.34
2023-01-22T04:58:29.315Z,101325.13
2023-01-22T05:00:57.543Z,101331.28
2023-01-22T05:03:25.574Z,101328.66
2023-01-22T05:05:53.329Z,101325.16
2023-01-22T05:08:21.139Z,101326.91
2023-01-22T05:10:48.851Z,101326.91
2023-01-22T05:13:17.859Z,101333.00
2023-01-22T05:15:48.061Z,101329.47
2023-01-22T05:18:15.826Z,101337.41
2023-01-22T05:20:43.566Z,101339.03
2023-01-22T05:23:11.482Z,101338.22
2023-01-22T05:25:39.271Z,101344.31
2023-01-22T05:28:06.948Z,101342.63
2023-01-22T05:30:36.000Z,101345.19
2023-01-22T05:33:03.779Z,101345.19
2023-01-22T05:35:31.494Z,101341.63
2023-01-22T05:37:59.222Z,101352.97
2023-01-22T05:40:26.951Z,101353.91
2023-01-22T05:42:55.616Z,101353.81
2023-01-22T05:45:23.359Z,101354.72
2023-01-22T05:47:54.375Z,101357.31
2023-01-22T05:50:22.912Z,101355.56
2023-01-22T05:52:55.395Z,101359.03
2023-01-22T05:55:23.441Z,101359.97
2023-01-22T05:57:51.266Z,101363.44
2023-01-22T06:00:19.991Z,101365.19
2023-01-22T06:02:48.446Z,101364.34
2023-01-22T06:05:17.713Z,101366.03
2023-01-22T06:07:45.400Z,101369.59
2023-01-22T06:10:13.165Z,101372.16
2023-01-22T06:12:40.927Z,101368.69
2023-01-22T06:15:10.215Z,101369.59
2023-01-22T06:17:37.988Z,101373.09
2023-01-22T06:20:06.979Z,101370.44
2023-01-22T06:22:36.036Z,101372.13
2023-01-22T06:25:04.049Z,101366.84
2023-01-22T06:27:31.756Z,101359.00
2023-01-22T06:29:59.494Z,101372.06
2023-01-22T06:32:27.232Z,101369.47
2023-01-22T06:34:54.922Z,101368.63
2023-01-22T06:37:23.021Z,101359.78
2023-01-22T06:39:52.188Z,101362.44
2023-01-22T06:42:19.920Z,101368.50
2023-01-22T06:44:47.904Z,101365.03
2023-01-22T06:47:15.562Z,101371.16
2023-01-22T06:49:43.170Z,101377.31
2023-01-22T06:52:11.022Z,101371.25
2023-01-22T06:54:38.802Z,101369.53
2023-01-22T06:57:07.859Z,101377.38
2023-01-22T06:59:37.144Z,101383.47
2023-01-22T07:02:05.444Z,101383.53
2023-01-22T07:04:33.153Z,101386.19
2023-01-22T07:07:00.855Z,101389.66
2023-01-22T07:09:28.609Z,101393.16
2023-01-22T07:11:57.444Z,101397.50
2023-01-22T07:14:36.612Z,101407.03
2023-01-22T07:17:04.845Z,101407.94
2023-01-22T07:19:32.723Z,101411.41
2023-01-22T07:22:00.495Z,101414.06
2023-01-22T07:24:28.233Z,101414.00
2023-01-22T07:26:55.906Z,101418.22
2023-01-22T07:29:23.602Z,101419.13
2023-01-22T07:31:52.738Z,101420.78
2023-01-22T07:34:20.688Z,101423.31
2023-01-22T07:36:48.390Z,101427.66
2023-01-22T07:39:16.100Z,101424.13
2023-01-22T07:41:43.958Z,101436.34
2023-01-22T07:44:12.556Z,101428.38
2023-01-22T07:46:40.531Z,101431.00
2023-01-22T07:49:09.653Z,101437.91
2023-01-22T07:51:37.366Z,101443.97
2023-01-22T07:54:05.156Z,101440.47
2023-01-22T07:56:32.900Z,101447.47
2023-01-22T07:59:00.655Z,101444.75
2023-01-22T08:01:28.427Z,101451.69
2023-01-22T08:03:57.310Z,101462.06
2023-01-22T08:06:26.421Z,101453.28
2023-01-22T08:08:54.251Z,101460.25
2023-01-22T08:11:21.977Z,101464.53
2023-01-22T08:13:49.727Z,101463.63
2023-01-22T08:16:17.619Z,101464.38
2023-01-22T08:18:45.301Z,101464.25
2023-01-22T08:21:13.060Z,101473.03
2023-01-22T08:23:44.223Z,101471.13
2023-01-22T08:26:13.593Z,101471.94
2023-01-22T08:28:41.469Z,101473.59
2023-01-22T08:31:16.436Z,101484.88
2023-01-22T08:33:50.695Z,101470.09
2023-01-22T08:36:18.407Z,101483.09
2023-01-22T08:38:47.567Z,101481.28
2023-01-22T08:41:15.684Z,101487.34
2023-01-22T08:43:43.573Z,101489.91
2023-01-22T08:46:11.324Z,101486.25
2023-01-22T08:48:39.934Z,101486.31
2023-01-22T08:51:07.724Z,101490.63
2023-01-22T08:53:35.427Z,101491.59
2023-01-22T08:56:04.803Z,101487.13
2023-01-22T08:58:32.565Z,101494.94
2023-01-22T09:01:00.309Z,101494.91
2023-01-22T09:03:28.143Z,101495.59
2023-01-22T09:05:56.017Z,101491.28
2023-01-22T09:08:23.763Z,101490.19
2023-01-22T09:10:51.459Z,101497.09
2023-01-22T09:13:20.611Z,101495.34
2023-01-22T09:15:48.355Z,101504.00
2023-01-22T09:18:16.035Z,101496.25
2023-01-22T09:20:45.811Z,101499.63
2023-01-22T09:23:15.496Z,101507.53
2023-01-22T09:25:43.779Z,101508.19
2023-01-22T09:28:12.382Z,101503.78
2023-01-22T09:30:42.780Z,101510.78
2023-01-22T09:33:10.783Z,101512.41
2023-01-22T09:35:38.455Z,101518.31
2023-01-22T09:38:06.632Z,101516.38
2023-01-22T09:40:43.352Z,101517.22
2023-01-22T09:43:25.053Z,101517.91
2023-01-22T09:45:57.695Z,101513.47
2023-01-22T09:48:30.437Z,101521.31
2023-01-22T09:50:58.238Z,101518.44
2023-01-22T09:53:26.085Z,101522.56
2023-01-22T09:55:57.588Z,101518.84
2023-01-22T09:58:26.800Z,101516.00
2023-01-22T10:01:00.370Z,101521.06
2023-01-22T10:03:32.773Z,101526.19
2023-01-22T10:06:03.460Z,101517.28
2023-01-22T10:08:34.993Z,101521.53
2023-01-22T10:11:03.375Z,101525.91
2023-01-22T10:13:34.524Z,101524.78
2023-01-22T10:16:04.768Z,101525.44
2023-01-22T10:18:37.640Z,101529.63
2023-01-22T10:21:08.715Z,101525.19
2023-01-22T10:23:36.505Z,101526.03
2023-01-22T10:26:15.116Z,101524.91
2023-01-22T10:28:46.420Z,101529.28
2023-01-22T10:31:37.659Z,101528.63
2023-01-22T10:34:14.219Z,101526.84
2023-01-22T10:36:50.657Z,101527.63
2023-01-22T10:39:19.087Z,101535.69
2023-01-22T10:41:48.577Z,101532.44
2023-01-22T10:44:22.461Z,101530.63
2023-01-22T10:46:52.273Z,101525.19
2023-01-22T10:49:23.306Z,101525.22
2023-01-22T10:51:54.590Z,101532.25
2023-01-22T10:54:26.287Z,101526.91
2023-01-22T10:57:06.085Z,101525.84
2023-01-22T10:59:34.325Z,101528.41
2023-01-22T11:02:12.100Z,101531.88
2023-01-22T11:04:39.860Z,101535.03
2023-01-22T11:07:13.742Z,101539.97
2023-01-22T11:09:45.836Z,101537.00
2023-01-22T11:12:20.357Z,101532.25
2023-01-22T11:14:51.307Z,101535.50
2023-01-22T11:17:23.027Z,101539.47
2023-01-22T11:19:57.976Z,101535.88
2023-01-22T11:22:33.352Z,101533.94
2023-01-22T11:25:01.209Z,101533.81
2023-01-22T11:27:51.099Z,101538.22
2023-01-22T11:30:45.383Z,101536.50
2023-01-22T11:33:26.824Z,101538.28
2023-01-22T11:35:59.734Z,101535.19
2023-01-22T11:38:33.265Z,101536.94
2023-01-22T11:41:06.345Z,101535.38
2023-01-22T11:43:47.376Z,101529.16
2023-01-22T11:46:26.878Z,101525.97
2023-01-22T11:49:12.808Z,101529.44
2023-01-22T11:51:49.481Z,101526.72
2023-01-22T11:54:33.474Z,101521.31
2023-01-22T11:57:11.127Z,101522.25
2023-01-22T11:59:54.374Z,101524.97
2023-01-22T12:02:34.632Z,101525.78
2023-01-22T12:05:21.127Z,101520.63
2023-01-22T12:08:12.873Z,101516.25
2023-01-22T12:11:26.715Z,101513.16
2023-01-22T12:14:15.470Z,101517.44
2023-01-22T12:16:51.198Z,101511.38
2023-01-22T12:19:44.065Z,101505.41
2023-01-22T12:22:28.110Z,101509.03
2023-01-22T12:25:02.836Z,101512.63
2023-01-22T12:27:35.464Z,101509.22
2023-01-22T12:30:14.001Z,101506.59
2023-01-22T12:32:46.345Z,101501.56
2023-01-22T12:35:17.608Z,101499.00
2023-01-22T12:37:50.127Z,101510.53
2023-01-22T12:40:32.936Z,101506.09
2023-01-22T12:43:02.961Z,101502.63
2023-01-22T12:45:42.046Z,101514.09
2023-01-22T12:48:20.849Z,101506.19
2023-01-22T12:50:53.214Z,101511.53
2023-01-22T12:53:26.246Z,101515.06
2023-01-22T12:56:01.712Z,101515.16
2023-01-22T12:58:31.421Z,101512.56
2023-01-22T13:01:21.768Z,101516.09
2023-01-22T13:03:59.287Z,101516.13
2023-01-22T13:06:33.179Z,101518.69
2023-01-22T13:09:03.105Z,101515.28
2023-01-22T13:11:34.335Z,101522.28
2023-01-22T13:14:17.650Z,101512.84
2023-01-22T13:16:53.915Z,101517.28
2023-01-22T13:19:24.425Z,101512.03
2023-01-22T13:21:52.738Z,101520.84
2023-01-22T13:24:22.552Z,101523.50
2023-01-22T13:26:57.042Z,101516.47
2023-01-22T13:29:28.576Z,101512.97
2023-01-22T13:31:58.189Z,101529.72
2023-01-22T13:34:26.641Z,101537.63
2023-01-22T13:36:55.514Z,101535.97
2023-01-22T13:39:27.875Z,101530.84
2023-01-22T13:41:58.007Z,101539.50
2023-01-22T13:44:29.109Z,101534.28
2023-01-22T13:46:57.151Z,101539.50
2023-01-22T13:49:26.855Z,101543.13
2023-01-22T13:51:56.304Z,101542.13
2023-01-22T13:54:29.974Z,101542.97
2023-01-22T13:56:57.725Z,101548.25
2023-01-22T13:59:27.438Z,101545.59
2023-01-22T14:01:55.702Z,101546.47
2023-01-22T14:04:44.425Z,101552.72
2023-01-22T14:07:17.835Z,101547.56
2023-01-22T14:09:46.905Z,101546.75
2023-01-22T14:12:16.372Z,101545.03
2023-01-22T14:14:44.551Z,101544.19
2023-01-22T14:17:25.294Z,101550.38
2023-01-22T14:19:53.740Z,101544.31
2023-01-22T14:22:22.309Z,101549.59
2023-01-22T14:24:52.929Z,101541.53
2023-01-22T14:27:21.376Z,101545.09
2023-01-22T14:29:49.523Z,101545.91
2023-01-22T14:32:17.614Z,101550.41
2023-01-22T14:34:45.531Z,101548.63
2023-01-22T14:37:16.579Z,101559.34
2023-01-22T14:39:44.419Z,101554.06
2023-01-22T14:42:13.665Z,101558.38
2023-01-22T14:44:41.564Z,101554.22
2023-01-22T14:47:09.411Z,101563.09
2023-01-22T14:49:37.402Z,101563.13
2023-01-22T14:52:05.628Z,101562.28
2023-01-22T14:54:33.517Z,101574.56
2023-01-22T14:57:03.397Z,101572.03
2023-01-22T14:59:32.697Z,101567.66
2023-01-22T15:02:00.584Z,101572.13
2023-01-22T15:04:28.632Z,101573.88
2023-01-22T15:06:56.436Z,101576.50
2023-01-22T15:09:24.409Z,101574.94
2023-01-22T15:11:52.326Z,101582.84
2023-01-22T15:14:20.223Z,101579.38
2023-01-22T15:16:49.562Z,101582.97
2023-01-22T15:19:18.617Z,101586.53
2023-01-22T15:21:46.665Z,101590.09
2023-01-22T15:24:14.580Z,101583.19
2023-01-22T15:26:42.290Z,101589.28
2023-01-22T15:29:11.888Z,101588.34
2023-01-22T15:31:39.806Z,101589.25
2023-01-22T15:34:08.908Z,101589.28
2023-01-22T15:36:39.410Z,101593.75
2023-01-22T15:39:07.914Z,101590.25
2023-01-22T15:41:37.238Z,101602.44
2023-01-22T15:44:07.006Z,101603.44
2023-01-22T15:46:36.641Z,101602.53
2023-01-22T15:49:06.308Z,101606.06
2023-01-22T15:51:36.404Z,101609.63
2023-01-22T15:54:06.997Z,101609.66
2023-01-22T15:56:36.692Z,101613.22
2023-01-22T15:59:05.323Z,101612.41
2023-01-22T16:01:33.642Z,101619.34
2023-01-22T16:04:03.022Z,101610.59
2023-01-22T16:06:32.656Z,101620.31
2023-01-22T16:09:03.920Z,101619.50
2023-01-22T16:11:32.930Z,101614.25
2023-01-22T16:14:00.820Z,101617.88
2023-01-22T16:16:31.061Z,101617.88
2023-01-22T16:19:00.203Z,101613.53
2023-01-22T16:21:28.542Z,101616.06
2023-01-22T16:23:58.227Z,101617.06
2023-01-22T16:26:30.085Z,101621.41
2023-01-22T16:28:59.684Z,101620.53
2023-01-22T16:31:30.435Z,101625.75
2023-01-22T16:34:00.021Z,101631.00
2023-01-22T16:36:29.476Z,101626.66
2023-01-22T16:38:57.313Z,101626.72
2023-01-22T16:41:28.792Z,101634.63
2023-01-22T16:43:59.396Z,101632.00
2023-01-22T16:46:30.320Z,101636.44
2023-01-22T16:49:00.612Z,101635.56
2023-01-22T16:51:33.917Z,101645.16
2023-01-22T16:54:01.892Z,101648.72
2023-01-22T16:56:32.347Z,101644.38
2023-01-22T16:59:00.716Z,101646.16
2023-01-22T17:01:30.496Z,101644.38
2023-01-22T17:03:58.435Z,101651.28
2023-01-22T17:06:28.708Z,101647.88
2023-01-22T17:08:56.716Z,101653.16
2023-01-22T17:11:24.561Z,101654.94
2023-01-22T17:13:53.844Z,101653.25
2023-01-22T17:16:21.650Z,101654.22
2023-01-22T17:18:49.402Z,101657.72
2023-01-22T17:21:19.438Z,101655.13
2023-01-22T17:23:47.590Z,101663.00
2023-01-22T17:26:17.291Z,101672.63
2023-01-22T17:28:45.954Z,101671.69
2023-01-22T17:31:17.630Z,101672.63
2023-01-22T17:33:46.632Z,101676.94
2023-01-22T17:36:16.857Z,101683.06
2023-01-22T17:38:44.629Z,101686.56
2023-01-22T17:41:15.836Z,101680.50
2023-01-22T17:43:45.049Z,101686.63
2023-01-22T17:46:16.032Z,101680.53
2023-01-22T17:48:44.842Z,101681.41
2023-01-22T17:51:14.869Z,101693.66
2023-01-22T17:53:44.348Z,101691.06
2023-01-22T17:56:13.963Z,101686.66
2023-01-22T17:58:43.496Z,101689.34
2023-01-22T18:01:13.835Z,101687.56
2023-01-22T18:03:43.089Z,101692.00
2023-01-22T18:06:11.346Z,101692.84
2023-01-22T18:08:40.881Z,101701.59
2023-01-22T18:11:10.933Z,101697.22
2023-01-22T18:13:39.550Z,101698.13
2023-01-22T18:16:09.238Z,101706.00
2023-01-22T18:18:37.264Z,101701.56
2023-01-22T18:21:07.636Z,101710.44
2023-01-22T18:23:35.466Z,101721.88
2023-01-22T18:26:05.088Z,101706.94
2023-01-22T18:28:33.265Z,101707.78
2023-01-22T18:31:06.093Z,101708.63
2023-01-22T18:33:34.796Z,101716.56
2023-01-22T18:36:02.726Z,101719.13
2023-01-22T18:38:32.144Z,101714.78
2023-01-22T18:41:05.709Z,101714.78
2023-01-22T18:43:33.653Z,101719.22
2023-01-22T18:46:04.079Z,101720.09
2023-01-22T18:48:32.140Z,101714.84
2023-01-22T18:51:00.025Z,101720.13
2023-01-22T18:53:29.673Z,101723.63
2023-01-22T18:56:01.276Z,101721.00
2023-01-22T18:58:31.197Z,101723.66
2023-01-22T19:01:00.918Z,101718.44
2023-01-22T19:03:28.718Z,101722.03
2023-01-22T19:05:56.972Z,101726.41
2023-01-22T19:08:24.664Z,101724.63
2023-01-22T19:10:52.713Z,101727.28
2023-01-22T19:13:21.916Z,101736.91
2023-01-22T19:15:49.726Z,101734.34
2023-01-22T19:18:17.515Z,101735.31
2023-01-22T19:20:45.239Z,101739.66
2023-01-22T19:23:13.688Z,101739.75
2023-01-22T19:25:41.441Z,101741.47
2023-01-22T19:28:09.189Z,101736.25
2023-01-22T19:30:38.284Z,101742.34
2023-01-22T19:33:06.884Z,101743.16
2023-01-22T19:35:34.639Z,101751.97
2023-01-22T19:38:02.468Z,101761.53
2023-01-22T19:40:30.210Z,101766.84
2023-01-22T19:42:58.022Z,101754.59
2023-01-22T19:45:25.883Z,101765.94
2023-01-22T19:47:56.867Z,101765.94
2023-01-22T19:50:25.311Z,101774.69
2023-01-22T19:52:53.018Z,101773.72
2023-01-22T19:55:24.592Z,101776.34
2023-01-22T19:57:52.468Z,101777.28
2023-01-22T20:00:20.826Z,101776.41
2023-01-22T20:02:48.898Z,101777.31
2023-01-22T20:05:20.533Z,101778.19
2023-01-22T20:07:49.010Z,101774.75
2023-01-22T20:10:19.190Z,101779.97
2023-01-22T20:12:50.783Z,101787.06
2023-01-22T20:15:19.477Z,101780.97
2023-01-22T20:17:47.803Z,101787.94
2023-01-22T20:20:15.831Z,101794.94
2023-01-22T20:22:45.147Z,101792.34
2023-01-22T20:25:15.121Z,101787.06
2023-01-22T20:27:43.282Z,101793.19
2023-01-22T20:30:12.347Z,101794.09
2023-01-22T20:32:40.231Z,101799.34
2023-01-22T20:35:08.834Z,101799.38
2023-01-22T20:37:36.607Z,101796.75
2023-01-22T20:40:06.749Z,101801.06
2023-01-22T20:42:34.615Z,101799.34
2023-01-22T20:45:02.425Z,101798.44
2023-01-22T20:47:34.010Z,101801.00
2023-01-22T20:50:02.043Z,101795.75
2023-01-22T20:52:30.025Z,101782.50
2023-01-22T20:55:01.679Z,101791.25
2023-01-22T20:57:31.927Z,101779.91
2023-01-22T20:59:59.681Z,101784.34
2023-01-22T21:02:27.759Z,101786.09
2023-01-22T21:04:56.613Z,101796.59
2023-01-22T21:07:24.385Z,101786.13
2023-01-22T21:09:52.226Z,101791.38
2023-01-22T21:12:20.334Z,101785.28
2023-01-22T21:14:54.303Z,101791.38
2023-01-22T21:17:22.411Z,101801.88
2023-01-22T21:19:51.639Z,101790.50
2023-01-22T21:22:19.473Z,101795.69
2023-01-22T21:24:47.241Z,101786.13
2023-01-22T21:27:14.996Z,101787.06
2023-01-22T21:29:42.779Z,101799.34
2023-01-22T21:32:11.956Z,101794.88
2023-01-22T21:34:40.664Z,101795.78
2023-01-22T21:37:08.445Z,101793.16
2023-01-22T21:39:38.613Z,101798.44
2023-01-22T21:42:38.644Z,101801.06
2023-01-22T21:45:21.697Z,101801.88
2023-01-22T21:47:50.861Z,101801.88
2023-01-22T21:50:18.972Z,101794.00
2023-01-22T21:52:49.014Z,101797.50
2023-01-22T21:55:16.910Z,101800.09
2023-01-22T21:57:44.615Z,101805.31
2023-01-22T22:00:13.820Z,101801.00
2023-01-22T22:02:41.534Z,101809.78
2023-01-22T22:05:11.323Z,101816.81
2023-01-22T22:07:39.094Z,101805.44
2023-01-22T22:10:11.719Z,101808.94
2023-01-22T22:12:39.588Z,101812.38
2023-01-22T22:15:09.849Z,101806.28
2023-01-22T22:17:38.011Z,101809.78
2023-01-22T22:20:06.493Z,101806.28
2023-01-22T22:22:35.670Z,101802.81
2023-01-22T22:25:03.450Z,101805.47
2023-01-22T22:27:31.396Z,101807.22
2023-01-22T22:29:59.165Z,101809.88
2023-01-22T22:32:27.010Z,101802.91
2023-01-22T22:34:54.832Z,101802.91
2023-01-22T22:37:22.659Z,101806.44
2023-01-22T22:39:51.931Z,101811.75
2023-01-22T22:42:19.764Z,101815.22
2023-01-22T22:44:47.531Z,101820.50
2023-01-22T22:47:15.304Z,101822.25
2023-01-22T22:49:43.578Z,101825.84
2023-01-22T22:52:12.864Z,101825.03
2023-01-22T22:54:40.692Z,101824.94
2023-01-22T22:57:09.971Z,101832.88
2023-01-22T22:59:37.786Z,101831.97
2023-01-22T23:02:06.101Z,101833.78
2023-01-22T23:04:34.486Z,101839.00
2023-01-22T23:07:02.433Z,101833.78
2023-01-22T23:09:30.309Z,101834.69
2023-01-22T23:11:59.469Z,101840.03
2023-01-22T23:14:28.701Z,101841.75
2023-01-22T23:16:57.709Z,101841.81
2023-01-22T23:19:27.480Z,101843.53
2023-01-22T23:21:57.618Z,101838.34
2023-01-22T23:24:27.634Z,101839.31
2023-01-22T23:26:56.017Z,101846.28
2023-01-22T23:29:26.680Z,101849.81
2023-01-22T23:31:56.720Z,101854.16
2023-01-22T23:34:24.764Z,101854.16
2023-01-22T23:36:52.867Z,101854.16
2023-01-22T23:39:22.440Z,101855.88
2023-01-22T23:41:50.277Z,101847.94
2023-01-22T23:44:18.148Z,101846.22
2023-01-22T23:46:46.080Z,101840.97
2023-01-22T23:49:15.349Z,101839.22
2023-01-22T23:51:44.701Z,101845.38
2023-01-22T23:54:12.538Z,101852.34
2023-01-22T23:56:40.329Z,101838.41
2023-01-22T23:59:08.117Z,101838.38
